createdAt,value
2018-03-20T00:04:47.576Z,-2.35
2018-03-20T00:14:41.522Z,-2.16
2018-03-20T00:24:38.604Z,-2.15
2018-03-20T00:34:37.253Z,-2.30
2018-03-20T00:44:32.975Z,-2.20
2018-03-20T00:54:31.227Z,-2.22
2018-03-20T01:04:28.624Z,-2.39
2018-03-20T01:14:25.129Z,-2.32
2018-03-20T01:24:23.368Z,-2.16
2018-03-20T01:34:19.154Z,-2.13
2018-03-20T01:44:16.985Z,-2.28
2018-03-20T01:54:14.778Z,-2.50
2018-03-20T02:04:10.137Z,-2.34
2018-03-20T02:14:08.281Z,-2.50
2018-03-20T02:24:04.873Z,-2.57
2018-03-20T02:34:01.966Z,-2.54
2018-03-20T02:43:58.397Z,-2.54
2018-03-20T02:53:56.184Z,-2.49
2018-03-20T03:03:53.869Z,-2.53
2018-03-20T03:13:50.773Z,-2.50
2018-03-20T03:23:45.857Z,-2.54
2018-03-20T03:33:42.335Z,-2.42
2018-03-20T03:43:40.502Z,-2.56
2018-03-20T03:53:30.605Z,-2.52
2018-03-20T04:03:26.404Z,-2.39
2018-03-20T04:13:21.922Z,-2.42
2018-03-20T04:23:17.794Z,-2.45
2018-03-20T04:33:13.334Z,-2.54
2018-03-20T04:43:09.771Z,-2.34
2018-03-20T04:53:03.753Z,-2.46
2018-03-20T05:03:01.390Z,-2.50
2018-03-20T05:12:58.865Z,-2.45
2018-03-20T05:22:53.637Z,-2.49
2018-03-20T05:32:52.031Z,-2.28
2018-03-20T05:42:46.883Z,-2.41
2018-03-20T05:52:45.143Z,-2.38
2018-03-20T06:02:37.322Z,-2.35
2018-03-20T06:12:33.181Z,-2.32
2018-03-20T06:22:30.044Z,-2.04
2018-03-20T06:32:28.111Z,-1.98
2018-03-20T06:42:24.967Z,-2.07
2018-03-20T06:52:20.294Z,-2.09
2018-03-20T07:02:18.864Z,-2.17
2018-03-20T07:12:15.096Z,-1.66
2018-03-20T07:22:12.055Z,-1.40
2018-03-20T07:32:10.280Z,-1.27
2018-03-20T07:42:07.854Z,-1.17
2018-03-20T07:52:04.602Z,-1.01
2018-03-20T08:02:03.208Z,-1.09
2018-03-20T08:11:57.910Z,-0.77
2018-03-20T08:21:54.164Z,-0.93
2018-03-20T08:31:52.494Z,-0.71
2018-03-20T08:41:48.560Z,-0.38
2018-03-20T08:51:45.629Z,-0.26
2018-03-20T09:01:42.074Z,-0.37
2018-03-20T09:11:38.503Z,-0.33
2018-03-20T09:21:35.996Z,-0.02
2018-03-20T09:31:33.065Z,0.35
2018-03-20T09:41:30.883Z,0.68
2018-03-20T09:51:24.301Z,0.68
2018-03-20T10:01:19.490Z,0.74
2018-03-20T10:11:15.361Z,0.71
2018-03-20T10:21:12.552Z,0.52
2018-03-20T10:31:07.929Z,0.83
2018-03-20T10:41:06.039Z,0.77
2018-03-20T10:51:01.288Z,0.27
2018-03-20T11:00:57.265Z,0.77
2018-03-20T11:10:54.366Z,1.16
2018-03-20T11:20:50.441Z,0.83
2018-03-20T11:30:46.431Z,1.11
2018-03-20T11:40:44.595Z,1.43
2018-03-20T11:50:42.075Z,1.68
2018-03-20T12:00:37.978Z,1.90
2018-03-20T12:10:35.421Z,1.79
2018-03-20T12:20:32.787Z,1.90
2018-03-20T12:30:27.432Z,2.32
2018-03-20T12:40:24.006Z,2.49
2018-03-20T12:50:21.576Z,2.21
2018-03-20T13:00:19.000Z,2.42
2018-03-20T13:10:14.306Z,2.71
2018-03-20T13:20:09.675Z,3.51
2018-03-20T13:30:07.481Z,4.04
2018-03-20T13:40:03.036Z,2.70
2018-03-20T13:49:57.045Z,2.88
2018-03-20T13:59:52.732Z,2.84
2018-03-20T14:09:53.702Z,4.00
2018-03-20T14:19:45.387Z,4.00
2018-03-20T14:29:43.673Z,4.30
2018-03-20T14:39:41.963Z,3.11
2018-03-20T14:49:34.232Z,3.39
2018-03-20T14:59:30.449Z,4.02
2018-03-20T15:09:25.624Z,3.48
2018-03-20T15:19:18.283Z,2.85
2018-03-20T15:29:11.775Z,2.57
2018-03-20T15:39:06.176Z,2.93
2018-03-20T15:49:04.703Z,2.91
2018-03-20T15:59:02.328Z,3.24
2018-03-20T16:08:57.770Z,2.84
2018-03-20T16:18:57.413Z,2.93
2018-03-20T16:28:51.999Z,1.94
2018-03-20T16:38:45.866Z,1.77
2018-03-20T16:48:42.960Z,1.72
2018-03-20T16:58:39.365Z,1.34
2018-03-20T17:08:34.757Z,1.10
2018-03-20T17:18:29.860Z,0.80
2018-03-20T17:28:26.611Z,0.50
2018-03-20T17:38:23.869Z,0.64
2018-03-20T17:48:18.104Z,0.42
2018-03-20T17:58:07.339Z,0.40
2018-03-20T18:08:04.421Z,0.52
2018-03-20T18:17:58.688Z,0.18
2018-03-20T18:27:53.836Z,0.09
2018-03-20T18:37:51.548Z,-0.20
2018-03-20T18:47:49.478Z,-0.25
2018-03-20T18:57:45.606Z,-0.38
2018-03-20T19:07:42.478Z,-0.46
2018-03-20T19:17:40.827Z,-0.79
2018-03-20T19:27:37.233Z,-0.76
2018-03-20T19:37:33.129Z,-0.93
2018-03-20T19:47:26.227Z,-1.01
2018-03-20T19:57:21.092Z,-1.26
2018-03-20T20:07:17.804Z,-1.16
2018-03-20T20:17:13.624Z,-1.26
2018-03-20T20:27:10.339Z,-1.34
2018-03-20T20:37:07.914Z,-1.41
2018-03-20T20:47:05.134Z,-1.42
2018-03-20T20:57:02.534Z,-1.38
2018-03-20T21:06:59.291Z,-1.45
2018-03-20T21:16:55.691Z,-1.44
2018-03-20T21:26:51.962Z,-1.40
2018-03-20T21:36:52.856Z,-1.32
2018-03-20T21:46:50.855Z,-1.42
2018-03-20T21:56:52.925Z,-1.38
2018-03-20T22:06:48.480Z,-1.26
2018-03-20T22:16:46.540Z,-1.53
2018-03-20T22:26:43.770Z,-1.81
2018-03-20T22:36:40.115Z,-2.01
2018-03-20T22:46:36.599Z,-2.23
2018-03-20T22:56:34.324Z,-2.27
2018-03-20T23:06:28.742Z,-2.36
2018-03-20T23:16:25.347Z,-2.65
2018-03-20T23:26:22.087Z,-2.75
2018-03-20T23:36:19.697Z,-2.83
2018-03-20T23:46:15.178Z,-3.04
2018-03-20T23:56:12.147Z,-3.04
